Time;durP1;ratioP1;P1;durP2;ratioP2;P2;SDS_P1;SDS_P2;PMS_P1;PMS_P2;Temp;Humidity;BMP_temperature;BMP_pressure;BME280_temperature;BME280_humidity;BME280_pressure;Samples;Min_cycle;Max_cycle;Signal;HPM_P1;HPM_P2
2023/01/16 00:04:35;;;;;;;3.40;1.05;;;8.20;99.90;;;;;;10344989;28;20030;-70
2023/01/16 00:09:35;;;;;;;1.70;1.00;;;8.20;99.90;;;;;;10361635;28;20134;-70
2023/01/16 00:14:36;;;;;;;1.63;0.90;;;9.00;99.90;;;;;;10349487;28;20402;-70
2023/01/16 00:19:36;;;;;;;1.80;1.08;;;8.20;99.90;;;;;;10362289;28;20101;-70
2023/01/16 00:24:37;;;;;;;2.92;1.00;;;8.20;99.90;;;;;;10352071;28;20023;-70
2023/01/16 00:29:38;;;;;;;2.42;1.00;;;8.80;99.90;;;;;;10352330;28;20080;-70
2023/01/16 00:34:38;;;;;;;1.83;0.98;;;8.20;99.90;;;;;;10354963;28;20025;-70
2023/01/16 00:39:39;;;;;;;3.22;1.10;;;8.20;99.90;;;;;;10343429;28;20378;-69
2023/01/16 00:44:40;;;;;;;1.60;1.20;;;8.20;99.90;;;;;;10359945;28;20029;-70
2023/01/16 00:49:40;;;;;;;2.55;1.40;;;8.20;99.90;;;;;;10354322;28;20045;-69
2023/01/16 00:54:41;;;;;;;2.97;1.20;;;8.20;99.90;;;;;;10360085;28;20389;-69
2023/01/16 00:59:42;;;;;;;1.95;0.93;;;8.20;99.90;;;;;;10353919;28;20505;-69
2023/01/16 01:04:42;;;;;;;1.73;0.93;;;8.20;99.90;;;;;;10346197;28;20489;-69
2023/01/16 01:09:43;;;;;;;2.67;0.85;;;8.20;99.90;;;;;;10361255;28;20042;-69
2023/01/16 01:14:43;;;;;;;1.80;1.10;;;8.20;99.90;;;;;;10337954;28;20275;-69
2023/01/16 01:19:44;;;;;;;3.05;1.08;;;8.20;99.90;;;;;;10359072;28;20026;-69
2023/01/16 01:24:49;;;;;;;2.28;1.65;;;8.20;99.90;;;;;;10347504;28;20038;-69
2023/01/16 01:29:49;;;;;;;3.55;1.20;;;8.20;99.90;;;;;;10359996;28;20034;-69
2023/01/16 01:34:50;;;;;;;3.40;1.00;;;8.20;99.90;;;;;;10350774;28;20018;-69
2023/01/16 01:39:50;;;;;;;2.53;1.23;;;8.20;99.90;;;;;;10349410;28;20037;-69
2023/01/16 01:44:58;;;;;;;1.73;0.80;;;8.20;99.90;;;;;;10338910;28;20037;-68
2023/01/16 01:50:02;;;;;;;3.70;1.00;;;8.20;99.90;;;;;;10353738;28;20033;-68
2023/01/16 01:55:06;;;;;;;1.50;0.95;;;8.20;99.90;;;;;;10351735;28;20022;-69
2023/01/16 02:00:14;;;;;;;2.85;1.30;;;8.20;99.90;;;;;;10359030;28;20116;-69
2023/01/16 02:05:23;;;;;;;2.90;0.93;;;8.20;99.90;;;;;;10351903;28;20422;-69
2023/01/16 02:10:32;;;;;;;1.83;0.90;;;8.20;99.90;;;;;;10357441;28;20037;-69
2023/01/16 02:15:34;;;;;;;2.97;1.17;;;8.10;99.90;;;;;;10353703;28;20034;-69
2023/01/16 02:21:02;;;;;;;1.38;0.80;;;8.10;99.90;;;;;;10361493;28;20127;-70
2023/01/16 02:26:30;;;;;;;3.60;0.90;;;8.10;99.90;;;;;;10347387;28;20034;-69
2023/01/16 02:31:48;;;;;;;2.13;0.88;;;8.10;99.90;;;;;;10350152;28;20036;-70
2023/01/16 02:37:13;;;;;;;3.03;1.23;;;8.10;99.90;;;;;;10353858;28;20061;-70
2023/01/16 02:42:24;;;;;;;2.08;0.88;;;8.10;99.90;;;;;;10348629;28;20302;-69
2023/01/16 02:47:28;;;;;;;2.20;0.90;;;8.10;99.90;;;;;;10349198;28;20502;-69
2023/01/16 02:52:41;;;;;;;1.90;1.08;;;8.10;99.90;;;;;;10343114;28;20419;-69
2023/01/16 02:57:47;;;;;;;1.73;1.00;;;8.10;99.90;;;;;;10350186;28;20109;-69
2023/01/16 03:02:48;;;;;;;1.67;1.13;;;8.10;99.90;;;;;;10352743;28;20371;-70
2023/01/16 03:07:57;;;;;;;1.55;1.20;;;8.10;99.90;;;;;;10338849;28;21471;-69
2023/01/16 03:13:24;;;;;;;1.50;1.10;;;8.10;99.90;;;;;;10351147;28;20018;-69
2023/01/16 03:18:52;;;;;;;1.55;1.08;;;8.10;99.90;;;;;;10346107;28;20544;-70
2023/01/16 03:24:11;;;;;;;2.83;1.10;;;8.10;99.90;;;;;;10343807;28;20040;-69
2023/01/16 03:29:41;;;;;;;2.58;1.20;;;8.10;99.90;;;;;;10339341;28;20053;-69
2023/01/16 03:34:50;;;;;;;2.78;1.20;;;8.10;99.90;;;;;;10349220;28;20426;-68
2023/01/16 03:39:57;;;;;;;1.75;1.02;;;8.10;99.90;;;;;;10355072;28;20094;-68
2023/01/16 03:45:09;;;;;;;2.33;1.10;;;8.10;99.90;;;;;;10360531;28;20121;-68
2023/01/16 03:50:12;;;;;;;1.58;1.25;;;8.10;99.90;;;;;;10363648;28;20450;-69
2023/01/16 03:55:23;;;;;;;1.67;1.10;;;8.10;99.90;;;;;;10357432;28;20092;-68
2023/01/16 04:00:31;;;;;;;3.42;1.48;;;8.10;99.90;;;;;;10352294;28;20450;-68
2023/01/16 04:05:42;;;;;;;2.20;1.38;;;8.10;99.90;;;;;;10346774;28;20164;-70
2023/01/16 04:10:46;;;;;;;2.00;1.38;;;8.10;99.90;;;;;;10354094;28;20049;-69
2023/01/16 04:15:52;;;;;;;3.35;1.63;;;8.10;99.90;;;;;;10351097;28;20026;-69
2023/01/16 04:20:53;;;;;;;3.05;1.50;;;8.10;99.90;;;;;;10354619;28;20037;-69
2023/01/16 04:25:54;;;;;;;3.40;2.10;;;8.10;99.90;;;;;;10358948;28;20026;-69
2023/01/16 04:30:54;;;;;;;5.35;2.20;;;8.10;99.90;;;;;;10363734;28;20025;-69
2023/01/16 04:35:55;;;;;;;3.78;2.00;;;8.70;99.90;;;;;;10348994;28;20684;-69
2023/01/16 04:40:56;;;;;;;4.03;1.92;;;8.10;99.90;;;;;;10356566;28;20025;-69
2023/01/16 04:45:56;;;;;;;3.92;1.95;;;8.10;99.90;;;;;;10344041;28;20099;-70
2023/01/16 04:50:57;;;;;;;3.40;2.13;;;8.10;99.90;;;;;;10346415;28;20072;-69
2023/01/16 04:55:57;;;;;;;3.70;2.17;;;8.10;99.90;;;;;;10351679;28;20032;-69
2023/01/16 05:00:58;;;;;;;4.65;2.58;;;8.00;99.90;;;;;;10350253;28;20053;-69
2023/01/16 05:05:59;;;;;;;4.15;2.22;;;8.00;99.90;;;;;;10353074;28;20030;-69
2023/01/16 05:11:01;;;;;;;5.57;2.80;;;8.00;99.90;;;;;;10350392;28;20018;-69
2023/01/16 05:16:01;;;;;;;4.38;2.25;;;8.00;99.90;;;;;;10361104;28;20151;-69
2023/01/16 05:21:03;;;;;;;4.32;2.08;;;8.00;99.90;;;;;;10352934;28;20814;-68
2023/01/16 05:26:04;;;;;;;6.07;2.22;;;8.00;99.90;;;;;;10348175;28;20029;-69
2023/01/16 05:31:05;;;;;;;3.90;2.22;;;8.00;99.90;;;;;;10356232;28;20022;-69
2023/01/16 05:36:06;;;;;;;4.35;1.95;;;8.00;99.90;;;;;;10345442;28;20036;-69
2023/01/16 05:41:07;;;;;;;4.30;2.10;;;8.00;99.90;;;;;;10339773;28;20366;-69
2023/01/16 05:46:08;;;;;;;6.82;2.20;;;8.00;99.90;;;;;;10344854;28;20030;-68
2023/01/16 05:51:11;;;;;;;4.53;2.13;;;8.00;99.90;;;;;;10347556;28;20079;-68
2023/01/16 05:56:12;;;;;;;3.90;1.92;;;7.90;99.90;;;;;;10346522;28;20205;-68
2023/01/16 06:01:13;;;;;;;3.40;1.75;;;7.90;99.90;;;;;;10350992;28;20168;-68
2023/01/16 06:06:14;;;;;;;4.85;2.13;;;7.90;99.90;;;;;;10345085;28;20391;-68
2023/01/16 06:11:14;;;;;;;3.22;1.92;;;7.90;99.90;;;;;;10354890;28;20387;-68
2023/01/16 06:16:15;;;;;;;4.45;1.98;;;7.90;99.90;;;;;;10357943;28;20051;-69
2023/01/16 06:21:15;;;;;;;6.10;1.70;;;7.90;99.90;;;;;;10355974;28;20026;-70
2023/01/16 06:26:16;;;;;;;5.47;2.10;;;7.90;99.90;;;;;;10357636;28;20030;-69
2023/01/16 06:31:17;;;;;;;3.00;1.83;;;7.90;99.90;;;;;;10356924;28;20022;-69
2023/01/16 06:36:17;;;;;;;4.60;2.20;;;7.90;99.90;;;;;;10355979;28;20026;-69
2023/01/16 06:41:18;;;;;;;3.55;1.58;;;7.80;99.90;;;;;;10357277;28;20022;-69
2023/01/16 06:46:19;;;;;;;4.63;1.75;;;7.80;99.90;;;;;;10358021;28;20376;-68
2023/01/16 06:51:19;;;;;;;2.10;1.45;;;7.80;99.90;;;;;;10341919;28;20458;-69
2023/01/16 06:56:20;;;;;;;4.32;2.17;;;7.80;99.90;;;;;;10353266;28;20026;-70
2023/01/16 07:01:20;;;;;;;2.63;1.45;;;7.80;99.90;;;;;;10333877;28;20210;-70
2023/01/16 07:06:21;;;;;;;4.38;1.70;;;7.80;99.90;;;;;;10348728;28;20042;-70
2023/01/16 07:11:22;;;;;;;4.22;1.60;;;8.90;99.90;;;;;;10355016;28;20014;-70
2023/01/16 07:27:08;;;;;;;4.60;1.65;;;7.80;99.90;;;;;;10347868;28;20124;-70
2023/01/16 07:32:10;;;;;;;2.70;1.58;;;7.70;99.90;;;;;;10353295;28;20357;-69
2023/01/16 07:37:11;;;;;;;2.30;1.30;;;7.70;99.90;;;;;;10360542;28;20096;-70
2023/01/16 07:42:11;;;;;;;3.92;1.20;;;7.70;99.90;;;;;;10357058;28;20021;-68
2023/01/16 07:47:12;;;;;;;3.00;1.35;;;7.70;99.90;;;;;;10360056;28;20349;-70
2023/01/16 07:52:13;;;;;;;6.53;1.42;;;8.50;99.90;;;;;;10343708;28;20033;-68
2023/01/16 07:57:13;;;;;;;6.10;1.55;;;7.80;99.90;;;;;;10344713;28;20022;-67
2023/01/16 08:02:14;;;;;;;3.03;1.40;;;7.70;99.90;;;;;;10341097;28;20057;-68
2023/01/16 08:07:15;;;;;;;2.53;1.40;;;7.70;99.90;;;;;;10364351;28;20045;-69
2023/01/16 08:12:18;;;;;;;3.80;1.08;;;7.70;99.90;;;;;;10363445;28;20049;-68
2023/01/16 08:17:19;;;;;;;2.78;1.25;;;7.70;99.90;;;;;;10362658;28;20045;-69
2023/01/16 08:22:19;;;;;;;6.50;1.60;;;7.70;99.90;;;;;;10359249;28;20049;-70
2023/01/16 08:27:20;;;;;;;3.85;2.28;;;7.70;99.90;;;;;;10357203;28;20033;-70
2023/01/16 08:32:21;;;;;;;2.28;1.60;;;7.70;99.90;;;;;;10346674;28;20026;-69
2023/01/16 08:37:21;;;;;;;3.97;1.30;;;8.90;99.90;;;;;;10365384;28;20062;-70
2023/01/16 08:53:03;;;;;;;5.13;1.55;;;7.70;99.90;;;;;;10357420;28;20021;-70
2023/01/16 08:58:04;;;;;;;3.67;1.75;;;8.70;99.90;;;;;;10369350;28;20057;-69
2023/01/16 09:03:04;;;;;;;2.55;1.40;;;8.60;99.90;;;;;;10358349;28;20101;-67
2023/01/16 09:08:05;;;;;;;3.40;1.50;;;7.70;99.90;;;;;;10363157;28;20038;-68
2023/01/16 09:18:25;;;;;;;2.75;1.48;;;7.80;99.90;;;;;;10354797;28;20029;-67
2023/01/16 09:23:25;;;;;;;2.88;1.27;;;7.80;99.90;;;;;;10342247;28;20029;-68
2023/01/16 09:28:26;;;;;;;6.30;1.35;;;7.80;99.90;;;;;;10346787;28;20036;-68
2023/01/16 09:33:27;;;;;;;2.65;1.30;;;7.80;99.90;;;;;;10347160;28;20275;-68
2023/01/16 09:38:27;;;;;;;3.47;1.25;;;7.80;99.90;;;;;;10349135;28;20034;-68
2023/01/16 09:43:46;;;;;;;1.95;1.30;;;7.80;99.90;;;;;;10357485;28;20112;-68
2023/01/16 09:48:55;;;;;;;3.15;1.30;;;7.80;99.90;;;;;;10335973;28;20531;-67
2023/01/16 09:59:54;;;;;;;7.00;1.13;;;7.70;99.90;;;;;;10350255;28;20034;-67
2023/01/16 10:04:56;;;;;;;1.30;0.93;;;7.70;99.90;;;;;;10355043;28;20036;-67
2023/01/16 10:10:18;;;;;;;1.50;0.98;;;7.80;99.90;;;;;;10360420;28;20173;-67
2023/01/16 10:15:43;;;;;;;3.10;0.95;;;7.70;99.90;;;;;;10356907;28;20018;-68
2023/01/16 10:21:17;;;;;;;2.00;1.52;;;7.70;99.90;;;;;;10332858;28;20042;-67
2023/01/16 10:26:43;;;;;;;2.35;0.95;;;7.70;99.90;;;;;;10342183;28;20079;-68
2023/01/16 10:32:16;;;;;;;1.58;0.80;;;7.70;99.90;;;;;;10347674;28;20030;-68
2023/01/16 10:37:17;;;;;;;1.52;0.98;;;7.70;99.90;;;;;;10337691;28;20046;-68
2023/01/16 10:53:11;;;;;;;1.73;0.80;;;7.80;99.90;;;;;;10375682;28;20022;-69
2023/01/16 10:58:29;;;;;;;1.95;0.90;;;7.70;99.90;;;;;;10366058;28;20018;-69
2023/01/16 11:03:38;;;;;;;1.60;1.13;;;7.70;99.90;;;;;;10354600;28;20121;-62
2023/01/16 11:08:41;;;;;;;1.53;0.70;;;7.70;99.90;;;;;;10365649;28;20397;-69
2023/01/16 11:19:21;;;;;;;1.63;0.80;;;7.70;99.90;;;;;;10363556;28;20034;-73
2023/01/16 11:24:32;;;;;;;1.73;1.00;;;7.80;99.90;;;;;;10366511;28;20064;-72
2023/01/16 11:29:42;;;;;;;1.42;0.90;;;7.80;99.90;;;;;;10356794;28;20030;-71
2023/01/16 11:34:47;;;;;;;2.95;1.02;;;7.80;99.90;;;;;;10368656;28;20034;-71
2023/01/16 11:39:50;;;;;;;2.38;0.90;;;7.80;99.90;;;;;;10365903;28;20033;-70
2023/01/16 11:50:21;;;;;;;1.92;0.93;;;7.80;99.90;;;;;;10362391;28;20034;-71
2023/01/16 11:55:29;;;;;;;1.73;1.05;;;7.80;99.90;;;;;;10362417;28;20033;-71
2023/01/16 12:00:39;;;;;;;1.83;1.00;;;7.70;99.90;;;;;;10358001;28;20018;-71
2023/01/16 12:05:55;;;;;;;;;;;7.70;99.90;;;;;;10352019;28;20345;-71
2023/01/16 12:11:26;;;;;;;2.45;0.85;;;7.80;99.90;;;;;;10342356;28;20328;-69
2023/01/16 12:16:40;;;;;;;1.15;0.90;;;7.80;99.90;;;;;;10333579;28;20029;-71
2023/01/16 12:22:02;;;;;;;2.17;1.10;;;7.80;99.90;;;;;;10336976;28;20360;-70
2023/01/16 12:27:24;;;;;;;2.58;0.95;;;7.80;99.90;;;;;;10339650;28;20219;-69
2023/01/16 12:33:00;;;;;;;1.25;0.90;;;7.80;99.90;;;;;;10348360;28;20042;-70
2023/01/16 12:38:04;;;;;;;1.38;0.98;;;7.80;99.90;;;;;;10351454;28;20026;-70
2023/01/16 12:43:23;;;;;;;2.05;0.98;;;7.80;99.90;;;;;;10349961;28;20597;-71
2023/01/16 12:48:53;;;;;;;1.83;1.10;;;7.70;99.90;;;;;;10366088;28;20046;-70
2023/01/16 12:54:09;;;;;;;1.70;1.17;;;7.70;99.90;;;;;;10358008;28;20018;-64
2023/01/16 12:59:22;;;;;;;3.53;1.30;;;7.70;99.90;;;;;;10355470;28;20053;-71
2023/01/16 13:04:31;;;;;;;3.03;1.10;;;7.80;99.90;;;;;;10372318;28;20021;-71
2023/01/16 13:15:26;;;;;;;2.20;0.95;;;7.80;99.90;;;;;;10365542;28;20034;-71
2023/01/16 13:20:28;;;;;;;1.05;0.90;;;7.80;99.90;;;;;;10366118;28;20033;-71
2023/01/16 13:25:42;;;;;;;2.00;1.00;;;7.80;99.90;;;;;;10362753;28;20032;-71
2023/01/16 13:30:43;;;;;;;0.90;0.90;;;7.80;99.90;;;;;;10355752;28;20099;-71
2023/01/16 13:36:09;;;;;;;1.30;0.90;;;7.80;99.90;;;;;;10348176;28;20018;-71
2023/01/16 13:41:35;;;;;;;1.35;0.93;;;7.80;99.90;;;;;;10359045;28;20026;-71
2023/01/16 13:46:36;;;;;;;1.40;0.90;;;7.80;99.90;;;;;;10354372;28;20501;-71
2023/01/16 13:51:44;;;;;;;2.03;1.50;;;7.80;99.90;;;;;;10369724;28;20013;-71
2023/01/16 13:56:57;;;;;;;1.67;1.13;;;7.80;99.90;;;;;;10361280;28;20441;-70
2023/01/16 14:01:58;;;;;;;2.03;0.70;;;7.80;99.90;;;;;;10347854;28;20022;-71
2023/01/16 14:13:12;;;;;;;1.23;0.80;;;7.80;99.90;;;;;;10336139;28;20037;-71
2023/01/16 14:18:20;;;;;;;2.65;0.90;;;7.80;99.90;;;;;;10332748;28;20378;-71
2023/01/16 14:28:54;;;;;;;0.82;0.70;;;7.80;99.90;;;;;;10337701;28;20041;-71
2023/01/16 14:33:57;;;;;;;1.27;0.68;;;7.80;99.90;;;;;;10344514;28;20030;-71
2023/01/16 14:38:58;;;;;;;1.17;0.85;;;7.80;99.90;;;;;;10342932;28;20054;-71
2023/01/16 14:55:15;;;;;;;2.30;0.60;;;7.80;99.90;;;;;;10328603;28;20089;-72
2023/01/16 15:00:19;;;;;;;0.82;0.60;;;8.60;99.90;;;;;;10318939;28;20021;-72
2023/01/16 15:05:49;;;;;;;1.25;0.68;;;7.80;99.90;;;;;;10340268;28;20106;-71
2023/01/16 15:10:50;;;;;;;1.00;0.60;;;8.90;99.90;;;;;;10346755;28;20070;-72
2023/01/16 15:16:01;;;;;;;0.60;0.57;;;7.80;99.90;;;;;;10351479;28;20018;-72
2023/01/16 15:26:58;;;;;;;0.70;0.60;;;7.80;99.90;;;;;;10330407;28;20629;-69
2023/01/16 15:32:03;;;;;;;1.00;0.73;;;7.90;99.90;;;;;;10342119;28;20460;-73
2023/01/16 15:37:23;;;;;;;2.72;0.90;;;7.90;99.90;;;;;;10342251;28;20018;-74
2023/01/16 15:48:18;;;;;;;1.08;0.60;;;7.90;99.90;;;;;;10356560;28;20133;-71
2023/01/16 15:53:20;;;;;;;2.70;0.70;;;7.90;99.90;;;;;;10338281;28;20026;-73
2023/01/16 15:58:23;;;;;;;2.20;1.15;;;7.90;99.90;;;;;;10338944;28;20104;-69
2023/01/16 16:03:29;;;;;;;1.00;0.90;;;7.80;99.90;;;;;;10341365;28;20332;-70
2023/01/16 16:08:32;;;;;;;1.35;0.85;;;7.80;99.90;;;;;;10351247;28;20030;-68
2023/01/16 16:13:35;;;;;;;1.10;0.73;;;7.80;99.90;;;;;;10351426;28;20018;-69
2023/01/16 16:18:36;;;;;;;1.10;0.77;;;8.00;99.90;;;;;;10345908;28;20029;-69
2023/01/16 16:23:36;;;;;;;1.23;0.80;;;7.90;99.90;;;;;;10357336;28;20029;-69
2023/01/16 16:28:40;;;;;;;1.95;0.98;;;7.90;99.90;;;;;;10355806;28;20417;-68
2023/01/16 16:33:43;;;;;;;0.80;0.80;;;8.90;99.90;;;;;;10347949;28;20410;-68
2023/01/16 16:38:49;;;;;;;2.53;1.20;;;7.80;99.90;;;;;;10363752;28;20488;-67
2023/01/16 16:43:56;;;;;;;4.22;1.20;;;7.80;99.90;;;;;;10376673;28;20109;-68
2023/01/16 16:49:09;;;;;;;2.58;0.90;;;7.80;99.90;;;;;;10372425;28;20026;-68
2023/01/16 16:54:13;;;;;;;2.00;1.08;;;7.80;99.90;;;;;;10366241;28;20474;-69
2023/01/16 16:59:20;;;;;;;1.67;1.15;;;7.80;99.90;;;;;;10366648;28;20029;-68
2023/01/16 17:04:21;;;;;;;2.42;1.00;;;7.80;99.90;;;;;;10361860;28;20037;-69
2023/01/16 17:09:25;;;;;;;2.00;0.85;;;7.80;99.90;;;;;;10360160;28;20514;-69
2023/01/16 17:14:26;;;;;;;1.55;0.90;;;7.80;99.90;;;;;;10353508;28;20022;-68
2023/01/16 17:19:30;;;;;;;1.20;0.80;;;8.40;99.90;;;;;;10363004;28;20037;-68
2023/01/16 17:24:31;;;;;;;1.92;0.93;;;7.80;99.90;;;;;;10357454;28;20145;-68
2023/01/16 17:29:32;;;;;;;2.00;1.30;;;7.80;99.90;;;;;;10363488;28;20404;-68
2023/01/16 17:34:33;;;;;;;2.42;1.20;;;7.90;99.90;;;;;;10359844;28;20113;-70
2023/01/16 17:39:33;;;;;;;1.42;1.00;;;7.90;99.90;;;;;;10357412;28;20033;-69
2023/01/16 18:00:32;;;;;;;2.10;1.33;;;7.90;99.90;;;;;;10361852;28;20022;-69
2023/01/16 18:05:32;;;;;;;4.53;1.92;;;7.90;99.90;;;;;;10348027;28;20030;-68
2023/01/16 18:10:35;;;;;;;3.13;1.63;;;8.00;99.90;;;;;;10349376;28;20042;-67
2023/01/16 18:26:14;;;;;;;2.78;1.60;;;8.00;99.90;;;;;;10350358;28;20269;-68
2023/01/16 18:31:15;;;;;;;3.03;1.45;;;8.00;99.90;;;;;;10355273;28;20045;-70
2023/01/16 18:36:16;;;;;;;3.47;1.65;;;8.00;99.90;;;;;;10345963;28;20026;-65
2023/01/16 19:03:17;;;;;;;2.83;2.00;;;8.00;99.90;;;;;;10355877;28;20033;-67
2023/01/16 19:08:22;;;;;;;4.22;1.85;;;8.10;99.90;;;;;;10350890;28;20045;-70
2023/01/16 19:13:36;;;;;;;2.85;1.98;;;9.20;99.90;;;;;;10353833;28;20022;-71
2023/01/16 19:18:42;;;;;;;4.20;2.30;;;9.30;99.90;;;;;;10368373;28;20506;-71
2023/01/16 19:23:43;;;;;;;3.70;2.10;;;9.00;99.90;;;;;;10369855;28;20113;-69
2023/01/16 19:28:44;;;;;;;3.97;2.30;;;8.10;99.90;;;;;;10364668;28;20052;-70
2023/01/16 19:33:44;;;;;;;4.05;2.20;;;8.00;99.90;;;;;;10379720;28;20114;-70
2023/01/16 19:38:45;;;;;;;4.60;2.40;;;8.00;99.90;;;;;;10366622;28;20040;-69
2023/01/16 19:49:05;;;;;;;5.82;2.13;;;8.00;99.90;;;;;;10367252;28;20034;-70
2023/01/16 19:54:06;;;;;;;2.95;1.80;;;8.00;99.90;;;;;;10348963;28;20076;-69
2023/01/16 19:59:08;;;;;;;3.33;1.67;;;7.90;99.90;;;;;;10353752;28;20068;-69
2023/01/16 20:04:08;;;;;;;4.13;1.55;;;7.90;99.90;;;;;;10352257;28;20434;-68
2023/01/16 20:09:09;;;;;;;2.75;1.63;;;7.90;99.90;;;;;;10336109;28;20045;-69
2023/01/16 20:14:10;;;;;;;2.83;2.03;;;7.90;99.90;;;;;;10353042;28;20033;-69
2023/01/16 20:19:10;;;;;;;3.35;1.88;;;7.90;99.90;;;;;;10352631;28;20022;-70
2023/01/16 20:24:11;;;;;;;3.53;1.80;;;7.90;99.90;;;;;;10365660;28;20030;-69
2023/01/16 20:29:13;;;;;;;3.17;1.50;;;7.90;99.90;;;;;;10356634;28;20159;-69
2023/01/16 20:34:14;;;;;;;3.08;1.80;;;9.20;99.90;;;;;;10359755;28;20117;-70
2023/01/16 20:39:14;;;;;;;2.42;1.63;;;7.90;99.90;;;;;;10358108;28;20068;-69
2023/01/16 20:49:37;;;;;;;2.30;1.58;;;7.80;99.90;;;;;;10368206;28;20124;-68
2023/01/16 20:54:38;;;;;;;2.25;1.65;;;7.80;99.90;;;;;;10367538;28;20419;-68
2023/01/16 20:59:38;;;;;;;3.15;1.67;;;7.80;99.90;;;;;;10358474;28;20014;-71
2023/01/16 21:04:40;;;;;;;3.13;1.48;;;7.80;99.90;;;;;;10358871;28;20026;-71
2023/01/16 21:09:40;;;;;;;2.42;1.50;;;7.80;99.90;;;;;;10353726;28;20038;-70
2023/01/16 21:14:41;;;;;;;2.60;1.50;;;7.80;99.90;;;;;;10341452;28;20029;-71
2023/01/16 21:25:02;;;;;;;2.45;1.40;;;7.80;99.90;;;;;;10350094;28;20398;-66
2023/01/16 21:30:12;;;;;;;2.67;1.75;;;7.80;99.90;;;;;;10337448;28;20133;-68
2023/01/16 21:35:13;;;;;;;1.75;1.25;;;7.80;99.90;;;;;;10345879;28;20505;-70
2023/01/16 21:40:16;;;;;;;2.67;1.35;;;8.30;99.90;;;;;;10346404;28;20036;-69
2023/01/16 21:50:42;;;;;;;3.08;1.80;;;7.80;99.90;;;;;;10339492;28;20511;-69
2023/01/16 21:55:45;;;;;;;1.95;1.58;;;7.90;99.90;;;;;;10341991;28;20532;-69
2023/01/16 22:00:47;;;;;;;3.13;1.70;;;7.80;99.90;;;;;;10355975;28;20082;-68
2023/01/16 22:05:47;;;;;;;3.10;1.50;;;7.80;99.90;;;;;;10358910;28;20025;-69
2023/01/16 22:21:36;;;;;;;2.78;1.50;;;7.70;99.90;;;;;;10349553;28;20066;-69
2023/01/16 22:26:37;;;;;;;2.80;1.45;;;7.70;99.90;;;;;;10341435;28;20033;-68
2023/01/16 22:31:37;;;;;;;2.45;1.33;;;7.70;99.90;;;;;;10352145;28;20030;-69
2023/01/16 22:36:38;;;;;;;1.95;1.23;;;7.70;99.90;;;;;;10339445;28;20025;-68
2023/01/16 22:41:39;;;;;;;1.88;1.17;;;7.70;99.90;;;;;;10352074;28;20341;-68
2023/01/16 22:46:39;;;;;;;1.17;0.88;;;7.80;99.90;;;;;;10335347;28;20141;-68
2023/01/16 22:51:40;;;;;;;2.33;1.27;;;7.70;99.90;;;;;;10353147;28;20044;-68
2023/01/16 22:56:43;;;;;;;2.63;1.15;;;7.70;99.90;;;;;;10360739;28;20022;-68
2023/01/16 23:01:44;;;;;;;2.63;1.13;;;7.70;99.90;;;;;;10339230;22;20048;-68
2023/01/16 23:06:44;;;;;;;1.92;1.45;;;7.70;99.90;;;;;;10188774;28;20032;-68
2023/01/16 23:11:47;;;;;;;2.25;0.90;;;7.70;99.90;;;;;;10163643;28;20024;-68
2023/01/16 23:16:50;;;;;;;2.17;1.08;;;7.70;99.90;;;;;;10183662;28;20565;-68
2023/01/16 23:21:53;;;;;;;1.77;0.90;;;7.70;99.90;;;;;;10155820;28;20511;-68
2023/01/16 23:26:56;;;;;;;1.73;0.90;;;7.70;99.90;;;;;;10168122;28;20030;-68
2023/01/16 23:31:56;;;;;;;1.52;0.93;;;7.70;99.90;;;;;;10207261;28;20026;-68
2023/01/16 23:36:57;;;;;;;1.20;0.77;;;7.70;99.90;;;;;;10171628;28;20035;-68
2023/01/16 23:47:20;;;;;;;1.35;0.80;;;7.70;99.90;;;;;;10263251;28;20097;-68
2023/01/16 23:52:27;;;;;;;1.52;0.88;;;7.70;99.90;;;;;;10160515;28;20028;-68
2023/01/16 23:57:28;;;;;;;3.67;0.90;;;7.70;99.90;;;;;;10170251;28;20088;-68
